Time;durP1;ratioP1;P1;durP2;ratioP2;P2;SDS_P1;SDS_P2;PMS_P1;PMS_P2;Temp;Humidity;BMP_temperature;BMP_pressure;BME280_temperature;BME280_humidity;BME280_pressure;Samples;Min_cycle;Max_cycle;Signal;HPM_P1;HPM_P2
2020/12/15 00:01:57;;;;;;;53.25;25.92;;;;;;;1.58;94.80;95426.16;5107786;28;20436;-73
2020/12/15 00:04:24;;;;;;;48.22;25.33;;;;;;;1.53;94.79;95421.47;5106802;28;20031;-72
2020/12/15 00:06:50;;;;;;;45.67;22.33;;;;;;;1.57;94.71;95422.78;5109002;28;20042;-73
2020/12/15 00:09:16;;;;;;;46.63;22.58;;;;;;;1.59;94.43;95422.63;5107338;28;20040;-74
2020/12/15 00:11:43;;;;;;;62.25;32.63;;;;;;;1.59;94.25;95425.19;5108505;28;20036;-73
2020/12/15 00:14:09;;;;;;;53.00;26.60;;;;;;;1.61;94.12;95425.84;5107940;28;20458;-73
2020/12/15 00:16:35;;;;;;;53.88;24.58;;;;;;;1.59;94.03;95433.69;5104979;28;20496;-73
2020/12/15 00:19:02;;;;;;;55.63;26.80;;;;;;;1.48;93.81;95432.25;5106600;28;20040;-72
2020/12/15 00:21:29;;;;;;;45.42;26.27;;;;;;;1.50;94.04;95429.53;5106320;28;20035;-73
2020/12/15 00:23:56;;;;;;;48.58;24.73;;;;;;;1.47;94.25;95429.84;5106959;28;20039;-72
2020/12/15 00:26:26;;;;;;;52.10;24.73;;;;;;;1.45;94.00;95431.75;5106117;28;20063;-72
2020/12/15 00:28:54;;;;;;;56.45;25.05;;;;;;;1.34;93.92;95425.97;5104958;28;20527;-73
2020/12/15 00:31:20;;;;;;;49.38;24.13;;;;;;;1.21;94.46;95420.50;5105911;28;20048;-73
2020/12/15 00:33:47;;;;;;;51.40;26.55;;;;;;;1.15;95.08;95421.13;5106604;28;20442;-72
2020/12/15 00:36:20;;;;;;;49.60;24.58;;;;;;;1.19;95.00;95427.56;5105722;28;20039;-72
2020/12/15 00:38:47;;;;;;;51.65;25.60;;;;;;;1.08;95.56;95422.72;5106631;28;20042;-72
2020/12/15 00:41:14;;;;;;;45.75;22.33;;;;;;;0.91;96.44;95430.38;5106515;28;20158;-72
2020/12/15 00:43:40;;;;;;;50.13;23.80;;;;;;;0.84;97.41;95426.81;5105040;28;20063;-73
2020/12/15 00:46:11;;;;;;;53.58;22.77;;;;;;;0.80;97.54;95417.84;5104694;28;20070;-72
2020/12/15 00:48:39;;;;;;;47.67;23.10;;;;;;;0.66;98.89;95418.44;5104537;28;20508;-72
2020/12/15 00:51:06;;;;;;;50.97;22.25;;;;;;;0.74;98.78;95423.59;5088275;28;20515;-72
2020/12/15 00:53:34;;;;;;;47.97;21.45;;;;;;;0.83;98.37;95421.84;5101680;28;20856;-72
2020/12/15 00:56:04;;;;;;;48.35;23.02;;;;;;;0.82;98.12;95405.66;5105457;28;20091;-72
2020/12/15 00:58:33;;;;;;;40.15;20.38;;;;;;;0.90;98.12;95418.53;5103274;28;20068;-72
2020/12/15 01:00:59;;;;;;;46.70;21.58;;;;;;;0.95;98.04;95425.72;5102870;28;20036;-72
2020/12/15 01:03:26;;;;;;;57.95;26.33;;;;;;;0.97;97.74;95423.00;5104168;28;20074;-73
2020/12/15 01:05:53;;;;;;;93.85;30.27;;;;;;;0.94;98.00;95419.00;5104317;28;20036;-73
2020/12/15 01:08:19;;;;;;;66.88;25.65;;;;;;;0.94;98.14;95419.81;5105134;28;20031;-73
2020/12/15 01:10:46;;;;;;;58.03;25.45;;;;;;;0.86;98.57;95417.22;5103333;28;20040;-73
2020/12/15 01:13:13;;;;;;;48.35;22.02;;;;;;;0.88;98.69;95410.19;5105813;28;20035;-72
2020/12/15 01:15:40;;;;;;;52.67;24.05;;;;;;;0.94;98.17;95413.88;5103728;28;20158;-73
2020/12/15 01:18:07;;;;;;;52.92;24.17;;;;;;;0.87;98.71;95418.81;5104248;28;20059;-73
2020/12/15 01:20:41;;;;;;;62.65;26.58;;;;;;;0.85;98.65;95404.56;5103960;28;20062;-73
2020/12/15 01:23:08;;;;;;;55.58;26.13;;;;;;;0.90;98.10;95413.38;5102479;28;20137;-72
2020/12/15 01:25:41;;;;;;;48.72;22.52;;;;;;;0.89;97.97;95416.09;5105324;28;20038;-73
2020/12/15 01:28:10;;;;;;;44.33;21.08;;;;;;;0.92;97.90;95421.72;5105344;28;20402;-72
2020/12/15 01:30:37;;;;;;;44.45;22.00;;;;;;;0.89;97.80;95416.91;5108362;28;20035;-72
2020/12/15 01:33:22;;;;;;;38.88;20.10;;;;;;;0.88;97.71;95422.19;5106221;28;20042;-73
2020/12/15 01:36:32;;;;;;;43.08;21.20;;;;;;;0.83;97.24;95417.53;5098644;28;20039;-72
2020/12/15 01:39:05;;;;;;;58.05;24.73;;;;;;;0.86;97.34;95421.53;5107871;28;20062;-72
2020/12/15 01:41:42;;;;;;;52.42;24.00;;;;;;;0.72;97.03;95415.25;5108201;28;20065;-72
2020/12/15 01:44:10;;;;;;;53.58;22.65;;;;;;;0.74;97.20;95415.91;5107812;28;20508;-71
2020/12/15 01:46:42;;;;;;;50.63;23.73;;;;;;;0.64;97.75;95412.66;5107621;28;20039;-72
2020/12/15 01:49:10;;;;;;;44.30;20.73;;;;;;;0.75;97.59;95430.31;5108093;28;20040;-72
2020/12/15 01:51:47;;;;;;;77.63;26.33;;;;;;;0.70;97.91;95417.97;5107791;28;20047;-72
2020/12/15 01:54:16;;;;;;;51.58;22.80;;;;;;;0.81;97.67;95424.59;5107370;28;20051;-72
2020/12/15 01:56:47;;;;;;;48.97;20.20;;;;;;;0.63;97.91;95416.16;5107972;28;20036;-73
2020/12/15 01:59:20;;;;;;;44.78;20.27;;;;;;;0.72;98.45;95425.50;5105637;28;20055;-74
2020/12/15 02:01:50;;;;;;;50.60;21.65;;;;;;;0.76;98.29;95431.94;5107311;28;20047;-73
2020/12/15 02:04:28;;;;;;;48.83;22.08;;;;;;;0.76;98.21;95431.94;5091691;28;20664;-72
2020/12/15 02:07:01;;;;;;;41.78;19.13;;;;;;;0.57;98.46;95418.38;5107592;28;20129;-71
2020/12/15 02:09:29;;;;;;;53.00;26.20;;;;;;;0.71;98.61;95426.47;5105543;28;20039;-72
2020/12/15 02:12:12;;;;;;;39.70;19.90;;;;;;;0.78;98.58;95429.22;5106241;28;20071;-71
2020/12/15 02:14:44;;;;;;;51.63;28.70;;;;;;;0.77;98.30;95418.16;5106542;28;20040;-72
2020/12/15 02:17:15;;;;;;;;;;;;;;;0.76;98.63;95431.94;5107916;27;20387;-72
2020/12/15 02:20:10;;;;;;;38.10;20.17;;;;;;;0.70;98.96;95423.13;5109012;28;20012;-72
2020/12/15 02:22:59;;;;;;;41.85;20.05;;;;;;;0.77;98.99;95425.84;5106334;28;20132;-73
2020/12/15 02:25:28;;;;;;;43.97;22.42;;;;;;;0.74;99.40;95431.28;5108487;28;20028;-72
2020/12/15 02:27:55;;;;;;;45.17;21.52;;;;;;;0.72;99.72;95425.50;5108487;28;20043;-72
2020/12/15 02:30:21;;;;;;;49.55;24.48;;;;;;;0.70;100.00;95424.84;5108402;28;20050;-72
2020/12/15 02:32:51;;;;;;;44.40;22.30;;;;;;;0.69;100.00;95413.81;5108205;28;20051;-72
2020/12/15 02:35:21;;;;;;;54.55;26.35;;;;;;;0.71;100.00;95434.16;5107569;28;20032;-72
2020/12/15 02:37:48;;;;;;;52.92;25.35;;;;;;;0.62;100.00;95419.72;5109741;28;20046;-72
2020/12/15 02:40:21;;;;;;;50.67;24.15;;;;;;;0.75;100.00;95422.63;5106965;28;20048;-72
2020/12/15 02:42:59;;;;;;;50.88;25.00;;;;;;;0.73;100.00;95421.97;5109380;28;20046;-72
2020/12/15 02:45:27;;;;;;;52.30;24.20;;;;;;;0.84;100.00;95431.94;5109265;28;20033;-71
2020/12/15 02:47:55;;;;;;;57.10;25.25;;;;;;;0.74;100.00;95428.72;5108481;28;20050;-71
2020/12/15 02:50:26;;;;;;;52.63;24.83;;;;;;;0.69;100.00;95425.81;5109390;28;20118;-72
2020/12/15 02:53:04;;;;;;;53.28;24.90;;;;;;;0.82;100.00;95436.44;5107842;28;20043;-72
2020/12/15 02:55:35;;;;;;;49.38;22.85;;;;;;;0.93;100.00;95433.56;5108425;28;20488;-72
2020/12/15 02:58:04;;;;;;;51.33;24.95;;;;;;;1.01;100.00;95429.44;5107589;28;20051;-72
2020/12/15 03:00:30;;;;;;;49.08;22.58;;;;;;;1.10;100.00;95443.91;5107956;28;20055;-72
2020/12/15 03:02:57;;;;;;;40.90;20.17;;;;;;;1.12;100.00;95421.47;5107751;28;20458;-71
2020/12/15 03:05:41;;;;;;;40.42;19.63;;;;;;;1.24;100.00;95445.88;5107539;28;20048;-72
2020/12/15 03:08:07;;;;;;;43.83;19.90;;;;;;;1.33;100.00;95439.78;5106015;28;20047;-72
2020/12/15 03:10:35;;;;;;;39.03;18.38;;;;;;;1.45;100.00;95447.16;5106782;28;20176;-72
2020/12/15 03:13:02;;;;;;;33.25;17.52;;;;;;;1.60;100.00;95452.47;5107562;28;20063;-72
2020/12/15 03:15:29;;;;;;;48.88;19.48;;;;;;;1.66;99.98;95460.34;5106873;28;20038;-71
2020/12/15 03:17:56;;;;;;;48.90;22.70;;;;;;;1.74;99.45;95456.16;5108820;28;20071;-72
2020/12/15 03:20:23;;;;;;;49.03;23.25;;;;;;;1.79;99.08;95459.06;5107284;28;20460;-72
2020/12/15 03:22:49;;;;;;;47.10;23.20;;;;;;;1.77;98.75;95450.72;5106133;28;20409;-72
2020/12/15 03:25:20;;;;;;;45.10;21.65;;;;;;;1.84;98.47;95464.53;5107376;28;20089;-72
2020/12/15 03:27:53;;;;;;;43.53;21.13;;;;;;;1.87;97.55;95451.34;5107296;28;20047;-72
2020/12/15 03:30:29;;;;;;;45.40;21.90;;;;;;;1.80;96.50;95450.38;5107656;28;20504;-72
2020/12/15 03:32:56;;;;;;;46.97;21.17;;;;;;;1.78;96.61;95457.44;5107146;28;20043;-72
2020/12/15 03:35:22;;;;;;;47.38;21.85;;;;;;;1.76;96.91;95449.09;5106732;28;20035;-72
2020/12/15 03:37:49;;;;;;;39.03;20.52;;;;;;;1.88;96.62;95473.50;5107282;28;20071;-72
2020/12/15 03:40:17;;;;;;;47.80;23.05;;;;;;;1.89;95.90;95459.69;5106774;28;20047;-71
2020/12/15 03:43:21;;;;;;;39.67;19.77;;;;;;;1.93;95.33;95461.00;5099157;28;20727;-72
2020/12/15 03:46:03;;;;;;;40.95;21.35;;;;;;;1.98;95.22;95469.03;5106624;28;20036;-72
2020/12/15 03:48:32;;;;;;;43.75;19.20;;;;;;;2.01;95.11;95471.25;5089594;28;20043;-72
2020/12/15 03:50:59;;;;;;;51.28;22.88;;;;;;;1.96;94.92;95483.78;5106277;28;20051;-72
2020/12/15 03:53:48;;;;;;;48.65;21.17;;;;;;;1.84;95.34;95472.25;5105786;28;20048;-72
2020/12/15 03:56:15;;;;;;;52.67;24.42;;;;;;;1.88;95.34;95484.59;5106402;28;20040;-72
2020/12/15 03:58:42;;;;;;;49.83;22.33;;;;;;;1.77;95.28;95473.84;5106067;28;20500;-72
2020/12/15 04:01:10;;;;;;;55.13;22.95;;;;;;;1.47;97.67;95481.19;5106282;28;20505;-72
2020/12/15 04:03:36;;;;;;;55.95;25.48;;;;;;;1.59;97.57;95487.63;5107187;28;20043;-72
2020/12/15 04:06:19;;;;;;;68.97;32.50;;;;;;;1.66;97.28;95491.16;5105709;28;20469;-72
2020/12/15 04:08:54;;;;;;;58.15;26.70;;;;;;;1.69;97.01;95490.84;5106052;28;20112;-72
2020/12/15 04:11:22;;;;;;;68.22;26.35;;;;;;;1.76;96.66;95485.84;5103816;28;20071;-72
2020/12/15 04:13:51;;;;;;;52.83;23.67;;;;;;;1.78;96.46;95495.97;5105842;28;20051;-72
2020/12/15 04:16:19;;;;;;;52.55;24.13;;;;;;;1.67;96.39;95497.88;5106187;28;20051;-72
2020/12/15 04:19:00;;;;;;;55.60;24.95;;;;;;;1.66;96.47;95501.44;5105695;28;20039;-72
2020/12/15 04:21:28;;;;;;;57.95;25.17;;;;;;;1.59;96.37;95500.47;5105914;28;20043;-72
2020/12/15 04:23:59;;;;;;;38.50;18.88;;;;;;;1.58;96.21;95503.97;5106080;28;20050;-72
2020/12/15 04:26:31;;;;;;;40.22;18.70;;;;;;;1.54;95.74;95512.97;5105830;28;20505;-72
2020/12/15 04:28:58;;;;;;;49.63;21.67;;;;;;;1.47;95.84;95506.84;5105896;28;20505;-72
2020/12/15 04:31:38;;;;;;;55.10;22.15;;;;;;;1.43;96.07;95515.84;5105737;28;20585;-72
2020/12/15 04:34:05;;;;;;;83.63;23.42;;;;;;;1.10;98.16;95516.53;5106163;28;20052;-72
2020/12/15 04:36:34;;;;;;;71.97;24.30;;;;;;;1.25;97.94;95519.31;5104999;28;20562;-71
2020/12/15 04:39:00;;;;;;;55.30;21.92;;;;;;;1.05;99.28;95515.41;5105602;28;20053;-72
2020/12/15 04:41:36;;;;;;;60.95;26.90;;;;;;;1.10;99.02;95519.09;5105764;28;20455;-72
2020/12/15 04:44:05;;;;;;;56.53;25.13;;;;;;;1.12;99.39;95518.97;5107048;28;20940;-72
2020/12/15 04:47:03;;;;;;;56.33;23.15;;;;;;;1.11;99.06;95514.78;5105894;28;20493;-72
2020/12/15 04:49:45;;;;;;;60.53;22.27;;;;;;;1.12;99.25;95524.09;5105872;28;20062;-72
2020/12/15 04:52:20;;;;;;;65.43;24.33;;;;;;;1.19;98.53;95530.22;5107071;28;20043;-72
2020/12/15 04:54:56;;;;;;;56.15;23.58;;;;;;;1.16;98.51;95534.84;5105650;28;21536;-72
2020/12/15 04:57:34;;;;;;;50.60;19.58;;;;;;;1.20;98.56;95542.06;5105519;28;20043;-72
2020/12/15 05:00:04;;;;;;;40.92;20.17;;;;;;;1.23;98.38;95546.91;5105186;28;20540;-72
2020/12/15 05:02:59;;;;;;;42.35;19.33;;;;;;;1.29;98.13;95551.41;5105510;28;20420;-72
2020/12/15 05:05:29;;;;;;;44.53;20.40;;;;;;;1.24;97.80;95547.69;5110058;28;20035;-73
2020/12/15 05:08:01;;;;;;;46.30;20.65;;;;;;;1.26;97.89;95556.03;5110177;28;20122;-68
2020/12/15 05:10:38;;;;;;;48.63;20.75;;;;;;;1.23;97.63;95559.72;5107620;28;20118;-68
2020/12/15 05:13:23;;;;;;;45.95;18.95;;;;;;;1.23;98.06;95557.16;5108597;28;20059;-68
2020/12/15 05:15:56;;;;;;;48.85;19.15;;;;;;;1.28;98.14;95566.97;5109315;28;20480;-68
2020/12/15 05:18:41;;;;;;;47.80;19.75;;;;;;;1.25;98.05;95575.75;5110603;28;20428;-68
2020/12/15 05:21:16;;;;;;;78.95;27.50;;;;;;;1.27;98.06;95573.84;5092259;28;20047;-68
2020/12/15 05:23:52;;;;;;;50.45;22.42;;;;;;;1.32;98.16;95566.50;5109315;28;20523;-68
2020/12/15 05:26:27;;;;;;;50.90;24.35;;;;;;;1.26;97.77;95562.00;5108953;28;20046;-68
2020/12/15 05:29:07;;;;;;;171.40;68.03;;;;;;;1.37;97.71;95576.31;5109479;28;20055;-67
2020/12/15 05:31:41;;;;;;;61.70;28.58;;;;;;;1.47;97.82;95583.88;5093147;28;20579;-68
2020/12/15 05:34:26;;;;;;;;;;;;;;;1.55;97.86;95581.34;5111507;28;20125;-68
2020/12/15 05:37:11;;;;;;;47.13;22.35;;;;;;;1.56;97.69;95593.19;5109365;28;19977;-67
2020/12/15 05:40:02;;;;;;;52.20;26.25;;;;;;;1.59;97.20;95587.75;5110300;28;20239;-67
2020/12/15 05:42:50;;;;;;;63.00;29.75;;;;;;;1.54;97.28;95595.13;5109295;28;20055;-67
2020/12/15 05:45:19;;;;;;;74.32;38.67;;;;;;;1.50;97.31;95588.69;5108540;28;20035;-68
2020/12/15 05:47:48;;;;;;;108.40;56.95;;;;;;;1.42;97.59;95586.09;5108120;28;20043;-67
2020/12/15 05:50:24;;;;;;;93.55;47.35;;;;;;;1.15;98.11;95569.94;5108711;28;20046;-68
2020/12/15 05:53:03;;;;;;;94.88;43.22;;;;;;;1.24;98.18;95574.19;5110127;27;20058;-69
2020/12/15 05:55:30;;;;;;;61.97;27.65;;;;;;;1.14;98.86;95591.44;5109850;28;20603;-70
2020/12/15 05:57:58;;;;;;;60.47;24.45;;;;;;;1.04;99.63;95588.19;5110057;28;20489;-69
2020/12/15 06:00:28;;;;;;;73.63;30.65;;;;;;;1.19;99.67;95591.78;5108145;28;20077;-68
2020/12/15 06:03:03;;;;;;;71.45;33.10;;;;;;;1.29;99.17;95592.47;5109872;28;20048;-68
2020/12/15 06:05:30;;;;;;;;;;;;;;;1.38;98.96;95601.00;5108629;28;20044;-67
2020/12/15 06:07:59;;;;;;;83.18;39.85;;;;;;;1.34;98.73;95602.28;5109780;28;19920;-67
2020/12/15 06:10:26;;;;;;;75.03;29.52;;;;;;;1.08;99.65;95604.88;5108837;28;20511;-68
2020/12/15 06:12:57;;;;;;;71.72;28.17;;;;;;;1.07;100.00;95608.41;5107695;28;20640;-69
2020/12/15 06:15:23;;;;;;;78.78;29.20;;;;;;;0.95;100.00;95607.84;5107750;28;20036;-69
2020/12/15 06:17:53;;;;;;;57.08;24.83;;;;;;;1.07;100.00;95613.53;5108871;28;20134;-69
2020/12/15 06:20:19;;;;;;;61.72;25.88;;;;;;;1.23;100.00;95613.63;5108509;28;20040;-69
2020/12/15 06:22:56;;;;;;;61.95;25.27;;;;;;;1.17;100.00;95606.53;5109208;28;20035;-69
2020/12/15 06:25:35;;;;;;;73.10;29.40;;;;;;;1.24;100.00;95610.09;5109213;28;20115;-69
2020/12/15 06:28:12;;;;;;;61.65;26.92;;;;;;;1.42;100.00;95607.41;5109121;28;20086;-69
2020/12/15 06:30:41;;;;;;;60.92;24.30;;;;;;;1.70;100.00;95610.56;5106831;28;20058;-69
2020/12/15 06:33:16;;;;;;;97.55;50.22;;;;;;;1.68;100.00;95612.50;5108582;28;20070;-69
2020/12/15 06:35:47;;;;;;;68.00;27.02;;;;;;;1.75;99.66;95617.81;5108096;28;20028;-69
2020/12/15 06:38:21;;;;;;;64.57;25.20;;;;;;;2.03;98.77;95630.41;5108063;28;20550;-69
2020/12/15 06:40:50;;;;;;;63.90;26.48;;;;;;;2.34;98.49;95627.22;5106079;28;20052;-69
2020/12/15 06:43:30;;;;;;;59.55;26.63;;;;;;;2.36;96.96;95620.16;5107567;27;20043;-68
2020/12/15 06:46:12;;;;;;;72.40;34.33;;;;;;;3.05;97.79;95625.72;5107480;28;20485;-69
2020/12/15 06:48:43;;;;;;;80.75;45.13;;;;;;;3.25;94.81;95626.97;5107508;28;20421;-69
2020/12/15 06:51:09;;;;;;;69.85;39.80;;;;;;;3.20;93.09;95633.56;5107724;28;20039;-69
2020/12/15 06:53:35;;;;;;;83.80;46.78;;;;;;;3.58;92.70;95624.28;5108190;28;20047;-68
2020/12/15 06:56:04;;;;;;;66.88;39.75;;;;;;;3.62;91.27;95615.25;5108920;28;20040;-69
2020/12/15 06:58:31;;;;;;;50.17;29.20;;;;;;;4.02;90.53;95631.47;5107932;28;20408;-69
2020/12/15 07:00:59;;;;;;;38.97;22.27;;;;;;;4.43;87.77;95634.75;5108015;28;20501;-69
2020/12/15 07:03:42;;;;;;;40.28;22.67;;;;;;;4.52;86.49;95618.22;5107662;28;20040;-69
2020/12/15 07:06:19;;;;;;;37.08;20.25;;;;;;;5.01;85.05;95628.13;5107975;28;20519;-69
2020/12/15 07:08:59;;;;;;;34.28;19.35;;;;;;;5.24;82.89;95632.41;5108848;28;20035;-69
2020/12/15 07:11:30;;;;;;;34.47;17.92;;;;;;;5.28;81.51;95625.94;5106395;28;20134;-69
2020/12/15 07:14:02;;;;;;;36.85;19.85;;;;;;;5.19;82.60;95639.91;5107747;28;20040;-69
2020/12/15 07:16:35;;;;;;;34.65;18.58;;;;;;;5.29;82.72;95635.28;5107893;28;20079;-69
2020/12/15 07:19:12;;;;;;;35.50;19.38;;;;;;;5.20;81.25;95639.72;5108566;28;20039;-69
2020/12/15 07:21:38;;;;;;;36.42;19.50;;;;;;;5.29;81.72;95645.59;5108256;28;20039;-69
2020/12/15 07:24:04;;;;;;;42.15;22.17;;;;;;;4.93;81.73;95635.94;5108130;27;20119;-69
2020/12/15 07:26:30;;;;;;;37.55;18.65;;;;;;;5.10;83.02;95652.91;5106480;28;20077;-69
2020/12/15 07:28:57;;;;;;;43.15;22.75;;;;;;;4.90;81.66;95657.75;5108493;28;20043;-69
2020/12/15 07:31:28;;;;;;;37.97;21.00;;;;;;;4.63;83.31;95651.38;5108103;28;20063;-69
2020/12/15 07:34:23;;;;;;;54.72;32.00;;;;;;;4.44;84.12;95657.78;5107908;28;20118;-69
2020/12/15 07:36:51;;;;;;;42.72;23.90;;;;;;;4.31;85.36;95663.53;5103856;28;20059;-69
2020/12/15 07:39:18;;;;;;;36.80;19.90;;;;;;;4.24;86.32;95669.53;5107878;28;20074;-69
2020/12/15 07:41:55;;;;;;;42.72;23.60;;;;;;;4.45;86.86;95668.91;5107581;27;20176;-69
2020/12/15 07:44:33;;;;;;;39.25;21.73;;;;;;;4.17;85.92;95677.16;5123346;27;20035;-69
2020/12/15 07:47:01;;;;;;;44.17;23.35;;;;;;;3.98;86.64;95668.88;5107249;28;20040;-69
2020/12/15 07:49:28;;;;;;;48.85;22.83;;;;;;;3.90;87.66;95675.84;5107860;28;20119;-69
2020/12/15 07:51:54;;;;;;;45.30;22.88;;;;;;;3.82;88.29;95684.41;5107618;28;20035;-69
2020/12/15 07:54:21;;;;;;;46.33;24.52;;;;;;;3.83;89.42;95680.84;5107296;28;20551;-69
2020/12/15 07:56:49;;;;;;;52.65;28.73;;;;;;;3.79;90.41;95677.00;5107779;28;20122;-69
2020/12/15 07:59:16;;;;;;;80.45;42.50;;;;;;;3.98;90.78;95689.50;5107517;28;20036;-68
2020/12/15 08:01:43;;;;;;;58.50;29.60;;;;;;;3.96;90.25;95681.13;5107257;28;20416;-69
2020/12/15 08:04:11;;;;;;;92.20;52.30;;;;;;;3.88;90.01;95686.31;5107579;27;20509;-69
2020/12/15 08:06:41;;;;;;;61.67;34.08;;;;;;;3.94;90.22;95697.72;5107241;28;20103;-70
2020/12/15 08:09:10;;;;;;;45.78;25.00;;;;;;;3.94;90.68;95703.69;5106020;28;20043;-67
2020/12/15 08:11:37;;;;;;;47.88;26.42;;;;;;;3.94;90.67;95698.53;5105971;27;20040;-67
2020/12/15 08:14:07;;;;;;;45.97;23.20;;;;;;;3.87;90.92;95702.75;5106986;28;20046;-67
2020/12/15 08:16:33;;;;;;;49.00;25.05;;;;;;;3.83;90.08;95702.28;5107099;28;20416;-67
2020/12/15 08:19:04;;;;;;;44.65;23.05;;;;;;;3.84;90.31;95703.09;5107296;28;20170;-68
2020/12/15 08:21:40;;;;;;;45.58;22.83;;;;;;;3.90;90.75;95702.41;5106207;28;20114;-68
2020/12/15 08:24:10;;;;;;;46.72;25.05;;;;;;;3.89;90.00;95700.81;5106534;28;20507;-67
2020/12/15 08:26:37;;;;;;;46.25;26.92;;;;;;;3.88;90.33;95694.03;5104493;28;20047;-68
2020/12/15 08:29:11;;;;;;;53.30;26.35;;;;;;;4.05;90.57;95701.69;5105351;28;20039;-68
2020/12/15 08:31:39;;;;;;;44.22;23.75;;;;;;;3.97;90.54;95687.88;5106104;28;20059;-68
2020/12/15 08:34:24;;;;;;;42.15;23.10;;;;;;;4.05;90.92;95704.28;5104961;28;20028;-68
2020/12/15 08:36:53;;;;;;;46.17;24.17;;;;;;;4.18;91.29;95704.53;5105757;28;20424;-68
2020/12/15 08:39:24;;;;;;;40.60;21.38;;;;;;;4.23;89.87;95707.41;5108931;28;21254;-68
2020/12/15 08:41:56;;;;;;;39.92;21.08;;;;;;;4.18;88.97;95705.34;5109702;28;20118;-70
2020/12/15 08:44:24;;;;;;;39.75;19.20;;;;;;;4.29;90.02;95690.47;5109166;28;20048;-70
2020/12/15 08:46:53;;;;;;;38.60;21.08;;;;;;;4.38;89.45;95699.75;5110028;28;20031;-67
2020/12/15 08:49:20;;;;;;;36.33;18.63;;;;;;;4.20;89.21;95702.59;5109852;28;20124;-67
2020/12/15 08:51:49;;;;;;;34.58;19.63;;;;;;;4.20;88.49;95702.59;5111087;28;20043;-69
2020/12/15 08:54:21;;;;;;;32.23;17.67;;;;;;;4.24;88.35;95706.44;5108561;28;20052;-69
2020/12/15 08:56:48;;;;;;;37.15;19.60;;;;;;;4.30;88.83;95698.00;5111046;28;20489;-69
2020/12/15 08:59:16;;;;;;;32.92;18.52;;;;;;;4.57;88.39;95703.66;5111159;28;20058;-69
2020/12/15 09:01:43;;;;;;;33.53;17.70;;;;;;;4.71;88.11;95700.31;5111099;28;20036;-69
2020/12/15 09:04:11;;;;;;;29.95;15.68;;;;;;;4.91;87.03;95684.38;5109081;28;20509;-69
2020/12/15 09:06:39;;;;;;;29.17;17.05;;;;;;;5.09;86.03;95692.59;5106677;28;20100;-69
2020/12/15 09:09:06;;;;;;;109.80;35.08;;;;;;;5.31;84.58;95690.13;5109623;28;20040;-69
2020/12/15 09:11:34;;;;;;;35.15;19.63;;;;;;;5.59;83.99;95692.13;5108571;28;20370;-69
2020/12/15 09:14:03;;;;;;;40.30;21.67;;;;;;;5.68;84.27;95686.69;5109330;28;20127;-69
2020/12/15 09:16:33;;;;;;;54.85;25.08;;;;;;;5.91;83.23;95686.56;5109506;28;20141;-69
2020/12/15 09:19:13;;;;;;;69.95;25.35;;;;;;;5.98;80.94;95675.53;5109766;28;20042;-69
2020/12/15 09:21:41;;;;;;;44.38;21.48;;;;;;;6.23;84.46;95676.84;5110006;28;20039;-69
2020/12/15 09:24:09;;;;;;;49.35;21.15;;;;;;;6.53;80.78;95674.13;5110347;28;20036;-69
2020/12/15 09:26:39;;;;;;;41.17;19.05;;;;;;;6.74;78.65;95675.94;5110064;27;20115;-69
2020/12/15 09:29:08;;;;;;;34.03;17.48;;;;;;;6.87;78.62;95675.25;5107428;28;20424;-69
2020/12/15 09:31:34;;;;;;;43.65;20.90;;;;;;;7.19;79.13;95675.69;5108764;28;20040;-69
2020/12/15 09:34:02;;;;;;;65.47;26.42;;;;;;;7.46;76.74;95674.88;5108640;28;20044;-69
2020/12/15 09:36:29;;;;;;;39.97;19.48;;;;;;;7.11;76.68;95660.28;5110130;28;20036;-69
2020/12/15 09:38:55;;;;;;;36.08;18.38;;;;;;;7.05;79.10;95662.63;5110068;28;20040;-69
2020/12/15 09:41:21;;;;;;;24.95;14.95;;;;;;;7.52;76.10;95659.56;5109119;28;20063;-70
2020/12/15 09:43:48;;;;;;;31.17;16.13;;;;;;;7.73;75.13;95675.03;5108901;27;20059;-69
2020/12/15 09:46:15;;;;;;;24.95;15.05;;;;;;;7.77;73.44;95676.22;5108137;28;21815;-70
2020/12/15 09:48:41;;;;;;;37.50;16.10;;;;;;;7.52;74.21;95672.50;5108367;28;20096;-70
2020/12/15 09:51:11;;;;;;;34.28;17.33;;;;;;;6.93;76.81;95664.13;5107990;28;20073;-70
2020/12/15 09:53:38;;;;;;;34.65;19.42;;;;;;;7.03;78.21;95669.00;5108324;28;20122;-71
2020/12/15 09:56:04;;;;;;;47.38;21.58;;;;;;;7.17;77.01;95664.72;5109143;28;20036;-71
2020/12/15 09:58:44;;;;;;;262.42;66.72;;;;;;;7.08;75.79;95667.44;5108756;28;20048;-71
2020/12/15 10:01:19;;;;;;;37.17;18.15;;;;;;;6.93;77.05;95652.97;5108977;28;20043;-71
2020/12/15 10:03:45;;;;;;;28.80;16.10;;;;;;;7.02;76.99;95663.03;5108761;28;20043;-71
2020/12/15 10:06:15;;;;;;;47.25;21.00;;;;;;;6.67;78.18;95655.16;5107673;28;20039;-71
2020/12/15 10:08:43;;;;;;;26.23;15.77;;;;;;;6.44;78.43;95659.72;5107726;28;20039;-71
2020/12/15 10:11:14;;;;;;;27.38;14.40;;;;;;;6.35;79.09;95660.81;5108351;28;20063;-68
2020/12/15 10:13:41;;;;;;;32.15;15.80;;;;;;;6.24;78.82;95655.13;5108251;28;20065;-69
2020/12/15 10:16:08;;;;;;;44.45;18.58;;;;;;;6.16;79.61;95657.84;5109680;28;22860;-69
2020/12/15 10:18:34;;;;;;;69.13;25.13;;;;;;;6.02;80.55;95667.25;5107855;28;20520;-69
2020/12/15 10:21:01;;;;;;;52.80;23.50;;;;;;;6.11;81.24;95644.66;5106481;28;20428;-69
2020/12/15 10:23:29;;;;;;;26.60;14.48;;;;;;;6.46;80.29;95668.09;5106381;28;20039;-70
2020/12/15 10:25:56;;;;;;;26.83;15.50;;;;;;;6.39;80.24;95662.88;5106784;28;20489;-69
2020/12/15 10:28:23;;;;;;;28.17;18.13;;;;;;;6.53;80.92;95657.81;5107747;28;20402;-69
2020/12/15 10:30:49;;;;;;;48.15;24.23;;;;;;;6.69;80.85;95663.53;5107528;28;20108;-70
2020/12/15 10:33:16;;;;;;;21.38;14.02;;;;;;;6.62;79.53;95657.50;5106429;28;20135;-69
2020/12/15 10:35:55;;;;;;;24.17;14.60;;;;;;;6.64;79.90;95655.53;5106655;28;20043;-70
2020/12/15 10:38:22;;;;;;;25.67;15.05;;;;;;;6.59;79.05;95652.72;5106331;28;20405;-70
2020/12/15 10:40:48;;;;;;;37.95;17.00;;;;;;;6.55;80.95;95648.88;5109081;28;20054;-71
2020/12/15 10:43:16;;;;;;;26.58;15.35;;;;;;;6.67;80.10;95649.97;5108484;28;20035;-70
2020/12/15 10:45:43;;;;;;;50.33;23.90;;;;;;;6.56;81.56;95647.91;5107848;28;20060;-70
2020/12/15 10:48:09;;;;;;;36.78;19.73;;;;;;;6.55;81.79;95646.28;5106895;28;20039;-70
2020/12/15 10:50:36;;;;;;;84.15;27.73;;;;;;;6.50;81.79;95643.47;5107941;28;20051;-70
2020/12/15 10:53:04;;;;;;;56.45;21.98;;;;;;;6.62;81.01;95647.13;5107756;27;20040;-70
2020/12/15 10:55:30;;;;;;;82.20;28.13;;;;;;;6.70;80.10;95631.50;5106251;28;20128;-70
2020/12/15 10:57:57;;;;;;;54.60;19.33;;;;;;;6.77;79.46;95643.69;5108584;28;20039;-70
2020/12/15 11:00:23;;;;;;;32.55;16.33;;;;;;;6.73;79.84;95632.09;5105167;28;20051;-69
2020/12/15 11:02:49;;;;;;;38.33;18.55;;;;;;;6.84;79.73;95635.00;5108496;28;20456;-70
2020/12/15 11:05:16;;;;;;;28.83;16.67;;;;;;;6.86;79.26;95624.44;5108719;28;20074;-70
2020/12/15 11:07:42;;;;;;;53.25;21.65;;;;;;;6.89;79.59;95631.81;5107566;28;20048;-70
2020/12/15 11:10:08;;;;;;;33.15;16.88;;;;;;;6.98;78.97;95630.69;5107216;28;20062;-70
2020/12/15 11:12:34;;;;;;;24.27;15.38;;;;;;;6.61;80.88;95618.84;5106501;28;20052;-70
2020/12/15 11:15:02;;;;;;;36.38;17.35;;;;;;;6.68;80.92;95623.13;5107884;27;20514;-72
2020/12/15 11:17:28;;;;;;;39.38;17.05;;;;;;;6.76;79.66;95627.34;5107417;28;20035;-69
2020/12/15 11:19:54;;;;;;;31.77;15.65;;;;;;;6.69;80.26;95619.53;5107921;28;20445;-69
2020/12/15 11:22:21;;;;;;;30.90;16.75;;;;;;;6.81;80.08;95621.63;5107476;28;20050;-69
2020/12/15 11:24:47;;;;;;;72.03;27.88;;;;;;;6.85;80.39;95612.47;5106168;28;20137;-70
2020/12/15 11:27:13;;;;;;;27.38;16.60;;;;;;;6.74;80.00;95592.28;5108317;27;20123;-70
2020/12/15 11:29:41;;;;;;;70.75;24.45;;;;;;;6.89;80.07;95605.94;5107961;28;20297;-70
2020/12/15 11:32:27;;;;;;;67.22;24.17;;;;;;;7.07;79.54;95614.03;5107185;28;20042;-70
2020/12/15 11:34:53;;;;;;;34.67;17.70;;;;;;;7.05;80.12;95610.81;5106704;28;20031;-71
2020/12/15 11:37:20;;;;;;;33.92;19.20;;;;;;;6.93;82.88;95607.16;5107614;28;20040;-71
2020/12/15 11:39:46;;;;;;;41.40;21.35;;;;;;;6.34;84.22;95603.13;5106791;28;20044;-70
2020/12/15 11:42:14;;;;;;;43.25;23.38;;;;;;;6.28;86.69;95598.66;5107478;28;20039;-69